createdAt,value
2022-12-27T00:00:05.745Z,9.25
2022-12-27T00:02:41.706Z,9.40
2022-12-27T00:05:10.307Z,9.32
2022-12-27T00:07:37.839Z,9.31
2022-12-27T00:10:06.781Z,8.98
2022-12-27T00:12:34.759Z,9.26
2022-12-27T00:15:03.373Z,9.32
2022-12-27T00:17:31.066Z,9.28
2022-12-27T00:19:58.556Z,9.00
2022-12-27T00:22:25.993Z,8.90
2022-12-27T00:24:54.480Z,9.25
2022-12-27T00:27:22.015Z,9.48
2022-12-27T00:29:49.542Z,9.50
2022-12-27T00:32:17.163Z,9.52
2022-12-27T00:34:44.764Z,9.35
2022-12-27T00:37:12.270Z,9.37
2022-12-27T00:39:39.789Z,9.30
2022-12-27T00:42:07.350Z,9.22
2022-12-27T00:44:34.961Z,9.16
2022-12-27T00:47:02.474Z,9.09
2022-12-27T00:49:29.957Z,8.99
2022-12-27T00:51:57.533Z,9.18
2022-12-27T00:54:25.083Z,9.24
2022-12-27T00:56:52.709Z,9.29
2022-12-27T00:59:20.192Z,9.25
2022-12-27T01:01:47.998Z,9.29
2022-12-27T01:04:15.846Z,9.21
2022-12-27T01:06:43.346Z,9.28
2022-12-27T01:09:10.797Z,9.35
2022-12-27T01:11:40.331Z,9.39
2022-12-27T01:14:07.798Z,9.46
2022-12-27T01:16:35.337Z,9.47
2022-12-27T01:19:02.933Z,9.49
2022-12-27T01:21:31.020Z,9.42
2022-12-27T01:23:59.189Z,9.55
2022-12-27T01:26:26.843Z,9.56
2022-12-27T01:28:54.831Z,9.52
2022-12-27T01:31:28.364Z,9.51
2022-12-27T01:33:57.904Z,9.52
2022-12-27T01:36:27.172Z,9.54
2022-12-27T01:38:55.101Z,9.50
2022-12-27T01:41:51.054Z,9.33
2022-12-27T01:44:40.248Z,9.33
2022-12-27T01:47:14.816Z,9.13
2022-12-27T01:49:55.949Z,9.18
2022-12-27T01:52:28.536Z,9.21
2022-12-27T01:55:00.705Z,9.00
2022-12-27T01:57:28.789Z,8.45
2022-12-27T01:59:56.274Z,8.50
2022-12-27T02:02:24.432Z,8.57
2022-12-27T02:04:54.161Z,8.51
2022-12-27T02:07:27.638Z,8.68
2022-12-27T02:09:58.714Z,8.97
2022-12-27T02:12:27.075Z,9.15
2022-12-27T02:14:54.529Z,9.18
2022-12-27T02:17:30.693Z,9.25
2022-12-27T02:20:14.426Z,9.23
2022-12-27T02:23:16.159Z,9.08
2022-12-27T02:26:01.572Z,8.89
2022-12-27T02:28:48.175Z,9.10
2022-12-27T02:31:22.882Z,9.17
2022-12-27T02:33:53.250Z,9.25
2022-12-27T02:36:26.373Z,9.26
2022-12-27T02:38:58.961Z,9.43
2022-12-27T02:41:46.198Z,9.35
2022-12-27T02:44:35.995Z,9.35
2022-12-27T02:47:22.619Z,9.31
2022-12-27T02:50:08.255Z,9.18
2022-12-27T02:53:05.863Z,9.15
2022-12-27T02:56:17.815Z,9.21
2022-12-27T02:59:12.924Z,9.12
2022-12-27T03:02:17.841Z,9.44
2022-12-27T03:05:36.021Z,9.56
2022-12-27T03:08:28.878Z,9.53
2022-12-27T03:11:19.312Z,9.50
2022-12-27T03:14:16.182Z,9.59
2022-12-27T03:16:55.900Z,9.45
2022-12-27T03:19:52.811Z,9.65
2022-12-27T03:22:41.986Z,9.74
2022-12-27T03:25:30.404Z,9.65
2022-12-27T03:28:32.139Z,9.28
2022-12-27T03:31:24.287Z,9.44
2022-12-27T03:34:04.701Z,9.47
2022-12-27T03:36:52.783Z,9.50
2022-12-27T03:39:45.222Z,9.57
2022-12-27T03:42:53.510Z,9.49
2022-12-27T03:45:22.043Z,9.63
2022-12-27T03:47:56.191Z,9.49
2022-12-27T03:50:34.263Z,9.72
2022-12-27T03:53:11.797Z,9.73
2022-12-27T03:55:39.322Z,9.64
2022-12-27T03:58:06.953Z,9.75
2022-12-27T04:00:34.406Z,9.61
2022-12-27T04:03:01.928Z,9.37
2022-12-27T04:05:29.701Z,9.34
2022-12-27T04:08:15.392Z,9.34
2022-12-27T04:11:01.779Z,9.28
2022-12-27T04:13:47.433Z,9.14
2022-12-27T04:16:33.059Z,9.39
2022-12-27T04:19:18.760Z,9.50
2022-12-27T04:22:04.962Z,9.46
2022-12-27T04:24:50.745Z,9.61
2022-12-27T04:27:36.458Z,9.47
2022-12-27T04:30:22.682Z,9.40
2022-12-27T04:33:08.919Z,9.30
2022-12-27T04:35:36.321Z,9.53
2022-12-27T04:38:03.783Z,9.36
2022-12-27T04:40:50.279Z,9.44
2022-12-27T04:43:41.092Z,9.58
2022-12-27T04:46:45.815Z,9.35
2022-12-27T04:49:45.231Z,9.51
2022-12-27T04:52:37.147Z,9.52
2022-12-27T04:55:25.877Z,9.52
2022-12-27T04:57:54.319Z,9.65
2022-12-27T05:00:43.673Z,9.65
2022-12-27T05:03:19.948Z,9.70
2022-12-27T05:05:49.213Z,9.72
2022-12-27T05:08:37.437Z,9.70
2022-12-27T05:11:25.193Z,9.71
2022-12-27T05:14:01.950Z,9.70
2022-12-27T05:16:36.307Z,9.46
2022-12-27T05:19:06.563Z,9.73
2022-12-27T05:21:38.330Z,9.59
2022-12-27T05:24:24.763Z,9.68
2022-12-27T05:26:56.070Z,9.48
2022-12-27T05:29:23.575Z,9.45
2022-12-27T05:31:51.086Z,9.38
2022-12-27T05:34:18.719Z,9.54
2022-12-27T05:36:46.207Z,9.49
2022-12-27T05:39:13.619Z,9.45
2022-12-27T05:41:41.171Z,9.57
2022-12-27T05:44:08.759Z,9.54
2022-12-27T05:46:36.401Z,9.60
2022-12-27T05:49:04.100Z,9.75
2022-12-27T05:51:31.684Z,9.79
2022-12-27T05:53:59.109Z,9.78
2022-12-27T05:56:26.662Z,9.74
2022-12-27T05:58:54.400Z,9.43
2022-12-27T06:01:21.849Z,9.15
2022-12-27T06:03:49.340Z,9.01
2022-12-27T06:06:16.803Z,8.83
2022-12-27T06:08:44.451Z,8.79
2022-12-27T06:11:17.618Z,8.88
2022-12-27T06:13:50.117Z,8.92
2022-12-27T06:16:18.134Z,8.67
2022-12-27T06:18:45.800Z,8.61
2022-12-27T06:21:17.311Z,8.56
2022-12-27T06:23:45.970Z,8.60
2022-12-27T06:26:25.603Z,8.61
2022-12-27T06:28:54.416Z,8.52
2022-12-27T06:31:22.620Z,8.61
2022-12-27T06:33:51.813Z,8.65
2022-12-27T06:36:26.440Z,8.58
2022-12-27T06:38:53.905Z,8.77
2022-12-27T06:41:21.575Z,8.83
2022-12-27T06:43:55.059Z,8.58
2022-12-27T06:46:24.507Z,8.94
2022-12-27T06:48:52.758Z,9.09
2022-12-27T06:51:22.852Z,9.04
2022-12-27T06:53:50.560Z,8.81
2022-12-27T06:56:20.806Z,8.98
2022-12-27T06:58:49.602Z,8.85
2022-12-27T07:01:27.857Z,9.04
2022-12-27T07:03:58.180Z,8.99
2022-12-27T07:06:27.994Z,9.07
2022-12-27T07:08:56.270Z,8.77
2022-12-27T07:11:24.563Z,8.85
2022-12-27T07:13:54.584Z,8.86
2022-12-27T07:16:24.969Z,8.79
2022-12-27T07:18:54.337Z,8.84
2022-12-27T07:21:24.563Z,8.83
2022-12-27T07:23:52.080Z,8.98
2022-12-27T07:26:26.053Z,8.90
2022-12-27T07:28:55.461Z,9.00
2022-12-27T07:31:24.606Z,9.09
2022-12-27T07:33:53.165Z,9.15
2022-12-27T07:36:23.332Z,9.23
2022-12-27T07:38:51.044Z,9.32
2022-12-27T07:41:18.584Z,9.43
2022-12-27T07:43:46.267Z,9.46
2022-12-27T07:46:16.989Z,9.29
2022-12-27T07:48:45.186Z,9.26
2022-12-27T07:51:13.193Z,9.17
2022-12-27T07:53:41.042Z,9.32
2022-12-27T07:56:14.090Z,9.47
2022-12-27T07:58:45.824Z,9.49
2022-12-27T08:01:15.357Z,9.46
2022-12-27T08:03:43.479Z,9.34
2022-12-27T08:06:20.235Z,9.37
2022-12-27T08:08:47.791Z,9.17
2022-12-27T08:11:15.362Z,9.31
2022-12-27T08:13:42.854Z,9.31
2022-12-27T08:16:16.727Z,9.56
2022-12-27T08:18:44.676Z,9.48
2022-12-27T08:22:02.567Z,9.43
2022-12-27T08:24:30.052Z,9.58
2022-12-27T08:26:57.550Z,9.72
2022-12-27T08:29:26.191Z,9.36
2022-12-27T08:31:53.748Z,9.29
2022-12-27T08:34:21.333Z,9.52
2022-12-27T08:36:56.247Z,9.60
2022-12-27T08:39:24.622Z,9.43
2022-12-27T08:41:55.005Z,9.36
2022-12-27T08:44:23.667Z,9.51
2022-12-27T08:46:51.299Z,9.72
2022-12-27T08:49:19.511Z,9.87
2022-12-27T08:51:47.211Z,9.97
2022-12-27T08:54:14.709Z,10.10
2022-12-27T08:56:42.200Z,10.00
2022-12-27T08:59:09.613Z,10.03
2022-12-27T09:01:37.265Z,10.36
2022-12-27T09:04:05.111Z,10.31
2022-12-27T09:06:32.744Z,10.34
2022-12-27T09:09:01.488Z,10.39
2022-12-27T09:11:31.791Z,10.32
2022-12-27T09:14:02.586Z,10.49
2022-12-27T09:16:31.311Z,10.46
2022-12-27T09:18:59.770Z,10.59
2022-12-27T09:21:31.801Z,10.73
2022-12-27T09:23:59.642Z,10.78
2022-12-27T09:26:29.616Z,10.65
2022-12-27T09:28:58.520Z,10.56
2022-12-27T09:31:26.558Z,10.42
2022-12-27T09:34:08.525Z,10.51
2022-12-27T09:36:55.384Z,10.35
2022-12-27T09:39:25.969Z,9.80
2022-12-27T09:45:18.302Z,9.81
2022-12-27T09:48:02.852Z,9.72
2022-12-27T09:50:38.450Z,9.92
2022-12-27T09:53:17.573Z,9.98
2022-12-27T09:55:53.509Z,9.72
2022-12-27T09:58:22.743Z,9.80
2022-12-27T10:00:56.025Z,9.77
2022-12-27T10:03:28.521Z,9.55
2022-12-27T10:06:09.504Z,9.75
2022-12-27T10:08:44.929Z,9.63
2022-12-27T10:11:36.744Z,10.14
2022-12-27T10:14:22.103Z,10.32
2022-12-27T10:17:27.188Z,10.24
2022-12-27T10:20:04.801Z,10.38
2022-12-27T10:22:40.888Z,10.70
2022-12-27T10:25:14.081Z,10.38
2022-12-27T10:27:41.891Z,10.59
2022-12-27T10:30:15.666Z,10.94
2022-12-27T10:32:43.992Z,11.17
2022-12-27T10:35:16.323Z,11.10
2022-12-27T10:37:45.192Z,11.28
2022-12-27T10:40:21.142Z,11.28
2022-12-27T10:43:17.188Z,11.64
2022-12-27T10:45:44.848Z,11.73
2022-12-27T10:48:41.524Z,11.08
2022-12-27T10:51:18.123Z,10.81
2022-12-27T10:53:45.392Z,10.88
2022-12-27T10:56:27.861Z,11.62
2022-12-27T10:59:21.045Z,11.34
2022-12-27T11:02:19.200Z,11.35
2022-12-27T11:05:01.188Z,11.00
2022-12-27T11:07:33.853Z,11.30
2022-12-27T11:10:15.784Z,11.80
2022-12-27T11:13:06.985Z,11.71
2022-12-27T11:15:40.872Z,11.73
2022-12-27T11:18:18.124Z,11.72
2022-12-27T11:20:50.908Z,11.56
2022-12-27T11:23:21.301Z,11.49
2022-12-27T11:25:55.603Z,11.71
2022-12-27T11:28:33.954Z,11.47
2022-12-27T11:31:09.174Z,11.11
2022-12-27T11:33:41.288Z,11.32
2022-12-27T11:36:12.419Z,11.47
2022-12-27T11:38:44.690Z,11.80
2022-12-27T11:41:12.037Z,11.68
2022-12-27T11:43:53.277Z,11.63
2022-12-27T11:46:59.008Z,11.67
2022-12-27T11:49:33.867Z,11.29
2022-12-27T11:52:19.339Z,11.60
2022-12-27T11:55:18.895Z,12.02
2022-12-27T11:57:53.043Z,11.28
2022-12-27T12:00:27.244Z,11.29
2022-12-27T12:03:35.337Z,11.60
2022-12-27T12:06:34.658Z,12.06
2022-12-27T12:09:08.038Z,12.22
2022-12-27T12:11:55.648Z,11.89
2022-12-27T12:14:56.476Z,11.89
2022-12-27T12:17:41.798Z,11.89
2022-12-27T12:20:32.267Z,11.69
2022-12-27T12:23:13.761Z,11.77
2022-12-27T12:26:20.675Z,11.79
2022-12-27T12:29:00.812Z,11.74
2022-12-27T12:32:02.078Z,11.64
2022-12-27T12:34:51.977Z,11.33
2022-12-27T12:37:22.074Z,11.52
2022-12-27T12:40:26.609Z,11.56
2022-12-27T12:43:12.523Z,11.61
2022-12-27T12:45:39.836Z,11.75
2022-12-27T12:48:07.280Z,11.82
2022-12-27T12:51:08.526Z,11.60
2022-12-27T12:53:53.286Z,11.52
2022-12-27T12:56:48.695Z,11.37
2022-12-27T12:59:36.902Z,11.44
2022-12-27T13:02:41.805Z,11.52
2022-12-27T13:05:22.761Z,11.59
2022-12-27T13:08:08.103Z,11.52
2022-12-27T13:11:02.253Z,11.66
2022-12-27T13:13:45.100Z,11.60
2022-12-27T13:16:31.147Z,11.66
2022-12-27T13:19:17.154Z,11.29
2022-12-27T13:22:12.566Z,11.35
2022-12-27T13:24:45.611Z,11.46
2022-12-27T13:27:35.454Z,11.74
2022-12-27T13:30:25.061Z,11.79
2022-12-27T13:33:11.988Z,11.36
2022-12-27T13:35:54.230Z,11.45
2022-12-27T13:38:21.592Z,11.57
2022-12-27T13:41:13.267Z,11.62
2022-12-27T13:44:14.439Z,11.76
2022-12-27T13:47:21.133Z,11.78
2022-12-27T13:50:03.520Z,11.66
2022-12-27T13:52:57.598Z,11.57
2022-12-27T13:55:55.890Z,11.51
2022-12-27T13:58:29.174Z,11.58
2022-12-27T14:01:05.577Z,11.53
2022-12-27T14:03:39.043Z,11.53
2022-12-27T14:06:29.884Z,11.55
2022-12-27T14:09:34.402Z,11.58
2022-12-27T14:12:27.562Z,11.63
2022-12-27T14:15:00.194Z,11.67
2022-12-27T14:17:39.871Z,11.27
2022-12-27T14:20:49.173Z,11.12
2022-12-27T14:23:42.629Z,11.13
2022-12-27T14:26:12.270Z,11.07
2022-12-27T14:29:02.639Z,10.96
2022-12-27T14:31:57.921Z,10.74
2022-12-27T14:34:48.427Z,10.79
2022-12-27T14:38:04.024Z,10.76
2022-12-27T14:40:58.442Z,10.67
2022-12-27T14:43:29.472Z,10.61
2022-12-27T14:46:15.510Z,10.47
2022-12-27T14:48:54.929Z,10.45
2022-12-27T14:52:10.530Z,10.35
2022-12-27T14:54:52.031Z,10.41
2022-12-27T14:57:33.845Z,10.25
2022-12-27T15:00:16.884Z,10.26
2022-12-27T15:03:09.097Z,10.17
2022-12-27T15:06:18.057Z,10.13
2022-12-27T15:09:19.869Z,10.01
2022-12-27T15:12:04.938Z,9.71
2022-12-27T15:14:55.238Z,9.68
2022-12-27T15:18:01.529Z,9.62
2022-12-27T15:20:43.733Z,9.63
2022-12-27T15:23:46.383Z,9.49
2022-12-27T15:26:34.833Z,9.32
2022-12-27T15:29:27.561Z,9.28
2022-12-27T15:32:10.204Z,9.20
2022-12-27T15:34:46.556Z,9.09
2022-12-27T15:37:55.035Z,9.04
2022-12-27T15:40:25.315Z,8.91
2022-12-27T15:43:08.649Z,8.91
2022-12-27T15:46:00.739Z,8.95
2022-12-27T15:48:53.127Z,9.00
2022-12-27T15:52:02.431Z,8.90
2022-12-27T15:54:53.442Z,8.70
2022-12-27T15:57:21.300Z,8.78
2022-12-27T15:59:54.061Z,8.72
2022-12-27T16:02:24.862Z,8.77
2022-12-27T16:05:01.793Z,8.80
2022-12-27T16:07:44.329Z,8.69
2022-12-27T16:10:32.207Z,8.59
2022-12-27T16:13:25.539Z,8.50
2022-12-27T16:15:54.425Z,8.39
2022-12-27T16:18:21.860Z,8.24
2022-12-27T16:20:55.141Z,8.39
2022-12-27T16:23:24.623Z,8.36
2022-12-27T16:26:15.823Z,8.31
2022-12-27T16:28:57.143Z,8.15
2022-12-27T16:31:31.102Z,8.11
2022-12-27T16:34:09.954Z,7.96
2022-12-27T16:36:44.697Z,7.92
2022-12-27T16:39:45.782Z,8.22
2022-12-27T16:42:13.531Z,8.28
2022-12-27T16:44:57.512Z,8.07
2022-12-27T16:47:47.096Z,8.17
2022-12-27T16:50:29.245Z,8.26
2022-12-27T16:53:15.140Z,8.20
2022-12-27T16:55:47.126Z,8.02
2022-12-27T16:58:21.923Z,8.07
2022-12-27T17:00:54.686Z,8.12
2022-12-27T17:03:22.738Z,8.29
2022-12-27T17:06:30.082Z,8.17
2022-12-27T17:08:42.582Z,8.18
2022-12-27T17:11:26.053Z,7.92
2022-12-27T17:13:58.259Z,7.83
2022-12-27T17:16:32.512Z,7.82
2022-12-27T17:19:03.560Z,7.86
2022-12-27T17:21:32.885Z,8.10
2022-12-27T17:24:10.171Z,8.09
2022-12-27T17:26:59.292Z,7.89
2022-12-27T17:30:04.009Z,7.84
2022-12-27T17:32:50.123Z,7.45
2022-12-27T17:35:45.709Z,7.63
2022-12-27T17:38:37.883Z,7.60
2022-12-27T17:41:56.426Z,7.35
2022-12-27T17:44:39.512Z,7.41
2022-12-27T17:47:27.015Z,7.39
2022-12-27T17:49:59.197Z,7.33
2022-12-27T17:52:45.477Z,7.30
2022-12-27T17:55:51.913Z,7.29
2022-12-27T17:58:20.322Z,6.95
2022-12-27T18:00:57.962Z,6.57
2022-12-27T18:03:39.402Z,6.64
2022-12-27T18:06:07.440Z,6.71
2022-12-27T18:08:36.147Z,6.78
2022-12-27T18:11:06.006Z,6.94
2022-12-27T18:13:38.590Z,6.98
2022-12-27T18:16:24.445Z,6.93
2022-12-27T18:19:18.441Z,6.94
2022-12-27T18:21:57.555Z,6.98
2022-12-27T18:24:33.027Z,6.81
2022-12-27T18:27:06.599Z,6.81
2022-12-27T18:29:38.898Z,6.94
2022-12-27T18:32:09.464Z,6.94
2022-12-27T18:34:55.245Z,6.75
2022-12-27T18:37:26.257Z,6.74
2022-12-27T18:39:57.923Z,6.83
2022-12-27T18:42:31.364Z,6.72
2022-12-27T18:45:33.690Z,6.65
2022-12-27T18:48:04.646Z,6.84
2022-12-27T18:50:34.408Z,6.89
2022-12-27T18:53:26.331Z,6.91
2022-12-27T18:56:04.626Z,6.76
2022-12-27T18:58:33.359Z,6.70
2022-12-27T19:01:04.189Z,6.63
2022-12-27T19:03:38.228Z,6.68
2022-12-27T19:06:32.031Z,6.94
2022-12-27T19:08:59.364Z,7.07
2022-12-27T19:11:33.044Z,7.04
2022-12-27T19:14:02.142Z,7.09
2022-12-27T19:16:34.645Z,7.01
2022-12-27T19:19:20.435Z,6.98
2022-12-27T19:21:47.837Z,6.45
2022-12-27T19:24:28.159Z,6.67
2022-12-27T19:26:58.315Z,6.80
2022-12-27T19:30:16.766Z,7.13
2022-12-27T19:32:44.272Z,7.07
2022-12-27T19:35:13.765Z,7.20
2022-12-27T19:37:41.194Z,7.08
2022-12-27T19:40:14.756Z,6.91
2022-12-27T19:42:43.651Z,6.86
2022-12-27T19:45:20.832Z,6.83
2022-12-27T19:47:51.977Z,6.67
2022-12-27T19:50:19.509Z,6.82
2022-12-27T19:52:49.105Z,6.75
2022-12-27T19:55:27.264Z,6.59
2022-12-27T19:57:55.816Z,6.64
2022-12-27T20:00:25.298Z,6.63
2022-12-27T20:02:53.289Z,6.58
2022-12-27T20:06:12.948Z,6.67
2022-12-27T20:08:42.666Z,6.82
2022-12-27T20:11:15.928Z,6.34
2022-12-27T20:13:43.220Z,6.29
2022-12-27T20:16:13.602Z,6.34
2022-12-27T20:18:41.861Z,6.28
2022-12-27T20:21:17.404Z,6.28
2022-12-27T20:23:45.079Z,6.26
2022-12-27T20:26:16.367Z,6.42
2022-12-27T20:28:44.084Z,6.32
2022-12-27T20:31:15.544Z,6.35
2022-12-27T20:33:53.498Z,5.82
2022-12-27T20:36:22.457Z,5.72
2022-12-27T20:38:50.335Z,5.89
2022-12-27T20:41:20.846Z,5.93
2022-12-27T20:43:58.961Z,5.98
2022-12-27T20:46:27.043Z,5.96
2022-12-27T20:48:56.285Z,5.98
2022-12-27T20:51:27.636Z,6.15
2022-12-27T20:53:57.746Z,6.13
2022-12-27T20:56:25.736Z,6.19
2022-12-27T20:58:53.966Z,6.21
2022-12-27T21:01:24.499Z,6.51
2022-12-27T21:03:52.249Z,6.57
2022-12-27T21:06:22.536Z,6.73
2022-12-27T21:08:56.582Z,6.65
2022-12-27T21:11:30.404Z,6.49
2022-12-27T21:13:59.788Z,6.66
2022-12-27T21:16:29.935Z,6.68
2022-12-27T21:18:58.724Z,6.88
2022-12-27T21:21:28.937Z,6.92
2022-12-27T21:23:58.201Z,6.89
2022-12-27T21:26:30.819Z,6.90
2022-12-27T21:29:00.144Z,6.72
2022-12-27T21:31:28.789Z,6.85
2022-12-27T21:33:56.716Z,6.91
2022-12-27T21:36:26.893Z,6.26
2022-12-27T21:38:55.647Z,6.67
2022-12-27T21:41:25.983Z,6.68
2022-12-27T21:43:54.705Z,6.31
2022-12-27T21:46:27.768Z,6.34
2022-12-27T21:49:02.124Z,6.40
2022-12-27T21:51:31.269Z,6.52
2022-12-27T21:53:59.427Z,6.59
2022-12-27T21:56:27.139Z,6.81
2022-12-27T21:58:59.179Z,6.48
2022-12-27T22:01:29.960Z,6.37
2022-12-27T22:03:59.623Z,6.31
2022-12-27T22:06:30.514Z,6.25
2022-12-27T22:09:00.811Z,6.20
2022-12-27T22:11:29.845Z,6.18
2022-12-27T22:13:58.013Z,6.33
2022-12-27T22:16:36.217Z,6.44
2022-12-27T22:19:12.642Z,6.52
2022-12-27T22:21:41.980Z,6.70
2022-12-27T22:24:13.286Z,6.90
2022-12-27T22:26:48.783Z,6.93
2022-12-27T22:29:17.444Z,7.11
2022-12-27T22:32:15.180Z,7.35
2022-12-27T22:34:42.916Z,7.27
2022-12-27T22:37:10.625Z,7.37
2022-12-27T22:39:38.243Z,7.34
2022-12-27T22:42:06.033Z,7.09
2022-12-27T22:44:33.696Z,6.93
2022-12-27T22:49:49.403Z,7.07
2022-12-27T22:52:17.229Z,6.93
2022-12-27T22:55:07.137Z,6.98
2022-12-27T22:57:35.089Z,7.14
2022-12-27T23:00:04.895Z,7.16
2022-12-27T23:02:34.274Z,7.14
2022-12-27T23:05:02.990Z,7.27
2022-12-27T23:08:04.154Z,7.41
2022-12-27T23:10:22.039Z,7.57
2022-12-27T23:12:49.789Z,7.68
2022-12-27T23:15:43.984Z,7.79
2022-12-27T23:18:11.747Z,7.96
2022-12-27T23:20:39.451Z,7.92
2022-12-27T23:23:27.212Z,7.95
2022-12-27T23:27:13.602Z,8.18
2022-12-27T23:29:45.046Z,8.30
2022-12-27T23:32:12.721Z,8.15
2022-12-27T23:34:40.266Z,8.19
2022-12-27T23:37:08.027Z,8.07
2022-12-27T23:39:35.532Z,8.13
2022-12-27T23:42:04.042Z,8.21
2022-12-27T23:44:34.858Z,8.23
2022-12-27T23:47:06.095Z,8.09
2022-12-27T23:49:34.261Z,8.21
2022-12-27T23:52:02.403Z,8.20
2022-12-27T23:54:44.907Z,8.09
2022-12-27T23:57:19.905Z,8.26
2022-12-27T23:59:51.806Z,8.22
